Time;durP1;ratioP1;P1;durP2;ratioP2;P2;SDS_P1;SDS_P2;PMS_P1;PMS_P2;Temp;Humidity;BMP_temperature;BMP_pressure;BME280_temperature;BME280_humidity;BME280_pressure;Samples;Min_cycle;Max_cycle;Signal;HPM_P1;HPM_P2
2023/04/26 00:01:40;;;;;;;2.53;1.80;;;7.90;91.70;;;;;;5120061;28;20043;-70
2023/04/26 00:04:18;;;;;;;2.20;1.75;;;7.80;99.90;;;;;;5083756;28;20038;-69
2023/04/26 00:06:50;;;;;;;2.33;1.83;;;7.80;99.90;;;;;;5094400;29;20047;-70
2023/04/26 00:09:26;;;;;;;3.42;2.15;;;7.70;99.90;;;;;;5108119;28;20053;-69
2023/04/26 00:12:04;;;;;;;1.83;1.73;;;7.70;99.90;;;;;;5095732;29;20510;-69
2023/04/26 00:14:35;;;;;;;3.40;2.00;;;7.60;99.90;;;;;;5085778;29;20350;-63
2023/04/26 00:17:07;;;;;;;2.47;1.95;;;7.50;99.90;;;;;;5120880;29;20031;-63
2023/04/26 00:19:44;;;;;;;1.88;1.50;;;7.50;99.90;;;;;;5120031;29;20216;-63
2023/04/26 00:22:17;;;;;;;2.08;1.88;;;7.40;99.90;;;;;;5121077;29;20043;-63
2023/04/26 00:24:49;;;;;;;2.38;1.95;;;7.40;99.90;;;;;;5104807;29;20335;-63
2023/04/26 00:27:26;;;;;;;2.53;1.88;;;7.30;99.90;;;;;;5105227;29;20035;-63
2023/04/26 00:30:01;;;;;;;1.80;1.70;;;7.30;99.90;;;;;;5120618;29;20039;-62
2023/04/26 00:32:35;;;;;;;;;;;7.40;99.90;;;;;;5121222;29;20327;-60
2023/04/26 00:35:10;;;;;;;6.50;1.70;;;7.40;99.90;;;;;;5104993;29;19914;-63
2023/04/26 00:37:42;;;;;;;2.40;1.85;;;7.40;99.90;;;;;;5104966;29;20310;-63
2023/04/26 00:40:16;;;;;;;4.18;2.10;;;7.30;99.90;;;;;;5121031;29;20065;-63
2023/04/26 00:42:47;;;;;;;4.13;2.15;;;7.30;99.90;;;;;;5108590;29;20047;-63
2023/04/26 00:45:21;;;;;;;1.73;1.63;;;7.30;99.90;;;;;;5141195;29;20041;-62
2023/04/26 00:47:53;;;;;;;4.63;2.53;;;7.30;99.90;;;;;;5108484;29;20053;-63
2023/04/26 00:50:25;;;;;;;2.22;2.03;;;7.40;99.90;;;;;;5107506;29;20039;-63
2023/04/26 00:52:58;;;;;;;3.55;2.67;;;7.30;99.90;;;;;;5093687;29;20308;-62
2023/04/26 00:55:30;;;;;;;1.92;1.83;;;7.40;99.90;;;;;;5123858;29;20047;-62
2023/04/26 00:58:03;;;;;;;3.22;2.30;;;7.50;99.90;;;;;;5108786;29;20039;-62
2023/04/26 01:03:10;;;;;;;2.08;1.65;;;7.50;99.90;;;;;;5169743;28;20064;-68
2023/04/26 01:05:41;;;;;;;2.22;2.03;;;7.60;99.90;;;;;;5116938;28;20054;-68
2023/04/26 01:08:19;;;;;;;3.75;2.38;;;7.50;99.90;;;;;;5140029;28;20607;-69
2023/04/26 01:10:59;;;;;;;2.33;2.13;;;7.50;99.90;;;;;;5114655;28;20065;-69
2023/04/26 01:13:36;;;;;;;2.38;2.10;;;7.50;99.90;;;;;;5142812;28;20391;-66
2023/04/26 01:16:15;;;;;;;3.88;2.80;;;7.50;99.90;;;;;;5153955;28;20028;-68
2023/04/26 01:18:51;;;;;;;2.22;2.00;;;7.40;99.90;;;;;;5122586;28;20041;-66
2023/04/26 01:21:25;;;;;;;2.30;2.10;;;7.30;99.90;;;;;;5133285;28;20057;-69
2023/04/26 01:23:59;;;;;;;2.37;1.90;;;7.20;99.90;;;;;;5146778;28;20038;-69
2023/04/26 01:26:35;;;;;;;3.28;1.98;;;7.30;99.90;;;;;;5155873;28;20045;-67
2023/04/26 01:29:23;;;;;;;8.40;2.50;;;7.30;99.90;;;;;;5141341;28;20045;-67
2023/04/26 01:31:58;;;;;;;2.13;1.67;;;7.30;99.90;;;;;;5153506;28;20030;-66
2023/04/26 01:34:33;;;;;;;2.78;2.00;;;7.40;99.90;;;;;;5123866;28;20046;-69
2023/04/26 01:37:10;;;;;;;2.67;2.22;;;7.40;99.90;;;;;;5153518;28;20040;-70
2023/04/26 01:39:45;;;;;;;2.20;2.03;;;7.40;99.90;;;;;;5153440;28;20554;-69
2023/04/26 01:42:22;;;;;;;2.05;1.60;;;7.50;99.90;;;;;;5155913;28;20037;-68
2023/04/26 01:44:53;;;;;;;2.00;1.80;;;7.50;99.90;;;;;;5146702;28;20053;-66
2023/04/26 01:47:32;;;;;;;2.05;1.77;;;7.50;99.90;;;;;;5176821;28;20033;-65
2023/04/26 01:50:24;;;;;;;1.75;1.65;;;7.50;99.90;;;;;;5132313;28;20330;-67
2023/04/26 01:52:58;;;;;;;2.40;1.73;;;7.50;99.90;;;;;;5144008;28;20050;-68
2023/04/26 01:55:35;;;;;;;3.83;2.17;;;7.60;99.90;;;;;;5170203;28;20045;-69
2023/04/26 01:58:09;;;;;;;2.85;1.38;;;7.50;99.90;;;;;;5153189;28;20034;-68
2023/04/26 02:00:41;;;;;;;3.20;2.40;;;7.50;99.90;;;;;;5142232;28;20049;-67
2023/04/26 02:03:17;;;;;;;1.63;1.52;;;7.50;99.90;;;;;;5123152;28;20105;-69
2023/04/26 02:05:52;;;;;;;2.10;1.42;;;7.50;99.90;;;;;;5109596;28;20251;-68
2023/04/26 02:08:27;;;;;;;2.08;1.83;;;7.50;99.90;;;;;;5122412;28;20528;-68
2023/04/26 02:11:01;;;;;;;1.90;1.80;;;7.40;99.90;;;;;;5149068;28;20448;-69
2023/04/26 02:13:36;;;;;;;1.52;1.40;;;7.20;99.90;;;;;;5142831;28;20056;-67
2023/04/26 02:16:17;;;;;;;3.95;1.80;;;7.10;99.90;;;;;;5165849;28;20199;-67
2023/04/26 02:18:52;;;;;;;1.80;1.50;;;7.00;99.90;;;;;;5156245;28;20030;-69
2023/04/26 02:21:27;;;;;;;1.80;1.65;;;6.90;99.90;;;;;;5147912;28;20046;-66
2023/04/26 02:23:58;;;;;;;2.63;1.45;;;6.70;99.90;;;;;;5140094;28;20038;-69
2023/04/26 02:26:40;;;;;;;1.95;1.77;;;6.70;99.90;;;;;;5135368;28;20042;-69
2023/04/26 02:29:11;;;;;;;1.42;1.33;;;6.60;99.90;;;;;;5144847;28;20030;-70
2023/04/26 02:31:43;;;;;;;2.17;1.23;;;6.50;99.90;;;;;;5153976;28;20042;-69
2023/04/26 02:34:17;;;;;;;1.60;1.30;;;6.40;99.90;;;;;;5171195;28;20037;-67
2023/04/26 02:36:51;;;;;;;1.42;1.33;;;6.30;99.90;;;;;;5122161;28;20231;-69
2023/04/26 02:39:25;;;;;;;1.88;1.52;;;6.20;99.90;;;;;;5156019;28;20033;-67
2023/04/26 02:41:59;;;;;;;;;;;6.20;99.90;;;;;;5162021;28;20030;-66
2023/04/26 02:44:32;;;;;;;1.27;1.17;;;6.10;99.90;;;;;;5121033;28;19944;-68
2023/04/26 02:47:08;;;;;;;2.88;1.52;;;6.10;99.90;;;;;;5130826;28;20046;-69
2023/04/26 02:49:42;;;;;;;1.63;1.45;;;6.00;99.90;;;;;;5118924;28;20034;-67
2023/04/26 02:52:20;;;;;;;2.97;1.70;;;6.00;99.90;;;;;;5179455;28;20042;-69
2023/04/26 02:54:55;;;;;;;2.55;1.42;;;5.90;99.90;;;;;;5154974;28;20533;-68
2023/04/26 02:57:32;;;;;;;2.08;1.90;;;5.80;99.90;;;;;;5120864;28;20045;-69
2023/04/26 03:00:06;;;;;;;1.70;1.35;;;5.80;99.90;;;;;;5141031;28;20049;-70
2023/04/26 03:02:42;;;;;;;2.03;1.85;;;5.80;99.90;;;;;;5132974;28;20042;-66
2023/04/26 03:05:15;;;;;;;1.48;1.38;;;5.70;99.90;;;;;;5104028;28;20360;-68
2023/04/26 03:07:52;;;;;;;1.95;1.65;;;5.70;99.90;;;;;;5124803;28;20044;-70
2023/04/26 03:10:27;;;;;;;2.97;2.30;;;5.70;99.90;;;;;;5153316;28;20038;-69
2023/04/26 03:13:08;;;;;;;2.42;1.55;;;5.70;99.90;;;;;;5138511;28;20051;-70
2023/04/26 03:15:45;;;;;;;1.83;1.40;;;5.70;99.90;;;;;;5160512;28;20394;-69
2023/04/26 03:18:23;;;;;;;3.42;1.85;;;5.80;99.90;;;;;;5153337;28;20049;-67
2023/04/26 03:21:01;;;;;;;1.67;1.35;;;5.80;99.90;;;;;;5136234;28;20033;-69
2023/04/26 03:23:33;;;;;;;2.50;1.52;;;5.90;99.90;;;;;;5123016;28;20056;-69
2023/04/26 03:26:17;;;;;;;1.83;1.23;;;5.80;99.90;;;;;;5119334;28;20042;-68
2023/04/26 03:28:51;;;;;;;1.83;1.38;;;5.80;99.90;;;;;;5134393;28;20036;-69
2023/04/26 03:31:27;;;;;;;2.80;1.80;;;5.70;99.90;;;;;;5130981;28;20055;-68
2023/04/26 03:34:03;;;;;;;1.65;1.30;;;5.60;99.90;;;;;;5120709;28;20053;-66
2023/04/26 03:36:40;;;;;;;1.92;1.55;;;5.60;99.90;;;;;;5118118;28;20393;-67
2023/04/26 03:39:12;;;;;;;1.73;1.05;;;5.60;99.90;;;;;;5131257;28;20527;-70
2023/04/26 03:41:44;;;;;;;2.50;1.73;;;5.70;99.90;;;;;;5168248;28;20128;-69
2023/04/26 03:44:21;;;;;;;5.18;1.27;;;5.80;99.90;;;;;;5138308;28;20084;-66
2023/04/26 03:46:57;;;;;;;2.38;1.85;;;5.80;99.90;;;;;;5136340;28;20045;-66
2023/04/26 03:49:31;;;;;;;2.83;2.28;;;5.70;99.90;;;;;;5145820;28;20370;-67
2023/04/26 03:52:06;;;;;;;1.52;1.42;;;5.90;99.90;;;;;;5120242;28;20047;-70
2023/04/26 03:54:40;;;;;;;2.00;1.80;;;5.90;99.90;;;;;;5167061;28;20042;-67
2023/04/26 03:57:14;;;;;;;1.60;1.50;;;5.90;99.90;;;;;;5138854;28;20622;-69
2023/04/26 03:59:55;;;;;;;1.75;1.60;;;5.90;99.90;;;;;;5122082;28;20046;-65
2023/04/26 04:02:28;;;;;;;1.25;1.13;;;5.90;99.90;;;;;;5142810;28;20048;-66
2023/04/26 04:05:00;;;;;;;1.77;1.58;;;5.90;99.90;;;;;;5120755;28;20285;-68
2023/04/26 04:07:36;;;;;;;1.73;1.23;;;5.90;99.90;;;;;;5145891;28;20029;-68
2023/04/26 04:10:27;;;;;;;1.50;1.40;;;5.90;99.90;;;;;;5154288;28;20045;-69
2023/04/26 04:12:58;;;;;;;1.77;1.60;;;6.00;99.90;;;;;;5137057;28;20053;-68
2023/04/26 04:15:37;;;;;;;2.45;1.40;;;6.00;99.90;;;;;;5140140;28;20038;-67
2023/04/26 04:18:11;;;;;;;3.33;1.83;;;6.10;99.90;;;;;;5154634;28;20593;-69
2023/04/26 04:20:44;;;;;;;3.95;1.77;;;6.20;99.90;;;;;;5122582;28;20069;-67
2023/04/26 04:23:16;;;;;;;2.67;1.53;;;6.30;99.90;;;;;;5136934;28;20055;-69
2023/04/26 04:25:50;;;;;;;1.92;1.58;;;6.40;99.90;;;;;;5146818;28;20041;-70
2023/04/26 04:28:22;;;;;;;2.05;1.58;;;6.40;99.90;;;;;;5138919;28;20051;-68
2023/04/26 04:30:59;;;;;;;1.60;1.50;;;6.40;99.90;;;;;;5128388;28;20239;-69
2023/04/26 04:33:34;;;;;;;1.73;1.60;;;6.50;99.90;;;;;;5169014;28;20038;-67
2023/04/26 04:36:08;;;;;;;1.63;1.30;;;6.60;99.90;;;;;;5142811;28;20049;-67
2023/04/26 04:38:43;;;;;;;3.38;1.80;;;6.60;99.90;;;;;;5121393;28;20049;-66
2023/04/26 04:41:17;;;;;;;3.38;1.55;;;6.70;99.90;;;;;;5137385;28;20048;-68
2023/04/26 04:43:49;;;;;;;1.42;1.33;;;6.70;99.90;;;;;;5125941;28;20041;-69
2023/04/26 04:46:26;;;;;;;3.83;2.13;;;6.80;99.90;;;;;;5132252;28;20045;-69
2023/04/26 04:49:02;;;;;;;1.60;1.50;;;6.90;99.90;;;;;;5133996;28;20071;-70
2023/04/26 04:51:41;;;;;;;2.25;2.00;;;6.90;99.90;;;;;;5145612;28;20052;-67
2023/04/26 04:54:18;;;;;;;1.85;1.70;;;7.00;99.90;;;;;;5158264;28;20042;-69
2023/04/26 04:56:52;;;;;;;6.38;1.70;;;7.20;99.90;;;;;;5117713;28;20048;-69
2023/04/26 04:59:26;;;;;;;1.40;1.30;;;7.20;99.90;;;;;;5118467;28;20477;-71
2023/04/26 05:02:00;;;;;;;1.80;1.42;;;7.30;99.90;;;;;;5128576;28;20046;-68
2023/04/26 05:04:33;;;;;;;1.60;1.38;;;7.30;99.90;;;;;;5118819;28;20105;-69
2023/04/26 05:07:07;;;;;;;1.42;1.23;;;7.40;99.90;;;;;;5112486;28;20056;-69
2023/04/26 05:09:38;;;;;;;1.80;1.70;;;7.50;99.90;;;;;;5120233;28;20242;-71
2023/04/26 05:12:09;;;;;;;2.67;1.60;;;7.70;99.90;;;;;;5126627;28;20346;-71
2023/04/26 05:14:41;;;;;;;4.40;1.58;;;7.80;99.90;;;;;;5164614;28;20129;-70
2023/04/26 05:17:13;;;;;;;1.65;1.45;;;7.80;99.90;;;;;;5111776;28;20053;-67
2023/04/26 05:19:45;;;;;;;1.73;1.63;;;7.90;99.90;;;;;;5119641;28;20057;-69
2023/04/26 05:22:21;;;;;;;4.22;1.58;;;7.90;99.90;;;;;;5169033;28;20254;-68
2023/04/26 05:24:57;;;;;;;2.05;1.40;;;7.90;99.90;;;;;;5164639;28;20164;-64
2023/04/26 05:27:31;;;;;;;3.47;1.55;;;8.00;99.90;;;;;;5133302;28;20306;-66
2023/04/26 05:30:08;;;;;;;2.47;1.30;;;8.30;99.90;;;;;;5132869;28;20030;-70
2023/04/26 05:32:40;;;;;;;1.83;1.27;;;8.20;99.90;;;;;;5121935;28;20331;-69
2023/04/26 05:35:15;;;;;;;1.42;1.33;;;8.30;99.90;;;;;;5148172;28;20132;-69
2023/04/26 05:37:50;;;;;;;3.03;1.35;;;8.10;99.90;;;;;;5138872;28;20052;-69
2023/04/26 05:40:31;;;;;;;1.15;1.05;;;8.10;99.90;;;;;;5140061;28;20133;-69
2023/04/26 05:43:10;;;;;;;2.42;1.17;;;8.00;99.90;;;;;;5125052;28;20034;-68
2023/04/26 05:46:00;;;;;;;1.02;0.93;;;8.10;99.90;;;;;;5147206;28;20046;-68
2023/04/26 05:48:34;;;;;;;1.98;1.88;;;8.20;99.90;;;;;;5127247;28;20210;-67
2023/04/26 05:51:07;;;;;;;1.27;1.17;;;8.30;99.90;;;;;;5139006;28;20248;-67
2023/04/26 05:53:46;;;;;;;1.52;1.42;;;8.40;99.90;;;;;;5121859;28;20034;-69
2023/04/26 05:56:23;;;;;;;1.88;1.75;;;8.40;99.90;;;;;;5148786;28;20025;-70
2023/04/26 05:58:54;;;;;;;1.92;1.40;;;8.60;99.90;;;;;;5107380;28;20133;-68
2023/04/26 06:01:28;;;;;;;2.25;1.40;;;8.70;99.90;;;;;;5163646;28;20029;-68
2023/04/26 06:03:59;;;;;;;1.27;1.17;;;8.70;99.90;;;;;;5135944;28;20046;-70
2023/04/26 06:06:35;;;;;;;3.30;1.85;;;8.80;99.90;;;;;;5126022;28;20085;-68
2023/04/26 06:09:07;;;;;;;2.55;1.63;;;8.70;99.90;;;;;;5135876;28;20045;-68
2023/04/26 06:11:40;;;;;;;1.45;1.17;;;8.70;99.90;;;;;;5144448;28;20385;-68
2023/04/26 06:14:11;;;;;;;1.10;1.00;;;8.90;99.90;;;;;;5137216;28;20040;-67
2023/04/26 06:16:50;;;;;;;5.18;2.05;;;9.00;99.90;;;;;;5147511;28;20056;-69
2023/04/26 06:19:23;;;;;;;1.65;1.55;;;8.70;99.90;;;;;;5153139;28;20256;-69
2023/04/26 06:21:57;;;;;;;5.80;1.27;;;8.50;99.90;;;;;;5144270;28;20052;-69
2023/04/26 06:24:31;;;;;;;4.18;1.45;;;8.60;99.90;;;;;;5145696;28;20049;-68
2023/04/26 06:27:02;;;;;;;2.85;2.13;;;8.60;99.90;;;;;;5142113;28;20342;-68
2023/04/26 06:29:34;;;;;;;2.00;1.48;;;8.60;99.90;;;;;;5179545;28;20029;-69
2023/04/26 06:32:08;;;;;;;1.52;1.42;;;8.80;99.90;;;;;;5154786;28;20060;-68
2023/04/26 06:34:45;;;;;;;1.80;1.70;;;8.90;99.90;;;;;;5146917;28;20052;-67
2023/04/26 06:37:19;;;;;;;1.95;1.50;;;8.90;99.90;;;;;;5130287;28;20038;-69
2023/04/26 06:39:50;;;;;;;1.77;1.63;;;9.20;99.90;;;;;;5134471;28;20048;-70
2023/04/26 06:42:26;;;;;;;1.52;1.42;;;9.30;99.90;;;;;;5120367;28;20313;-69
2023/04/26 06:45:03;;;;;;;2.38;1.90;;;9.50;99.90;;;;;;5132864;28;20292;-69
2023/04/26 06:47:39;;;;;;;3.30;1.58;;;9.50;99.90;;;;;;5131649;28;20056;-67
2023/04/26 06:50:14;;;;;;;4.93;2.35;;;9.50;99.90;;;;;;5155982;28;20018;-68
2023/04/26 06:52:50;;;;;;;2.13;1.60;;;9.50;99.90;;;;;;5117476;28;20049;-70
2023/04/26 06:55:22;;;;;;;2.75;1.67;;;9.70;99.90;;;;;;5114736;28;20041;-67
2023/04/26 06:57:58;;;;;;;4.22;1.83;;;9.80;99.90;;;;;;5139537;28;20271;-67
2023/04/26 07:00:31;;;;;;;2.17;1.70;;;10.00;99.90;;;;;;5153051;28;20275;-67
2023/04/26 07:03:03;;;;;;;2.60;2.00;;;10.20;99.90;;;;;;5150558;28;20390;-70
2023/04/26 07:05:40;;;;;;;2.42;1.60;;;10.10;99.90;;;;;;5114544;28;20432;-70
2023/04/26 07:08:14;;;;;;;2.05;1.48;;;10.50;99.90;;;;;;5148582;28;20129;-69
2023/04/26 07:10:50;;;;;;;2.30;2.10;;;10.60;99.90;;;;;;5120123;28;20049;-68
2023/04/26 07:13:30;;;;;;;2.17;1.80;;;10.80;99.90;;;;;;5132218;28;20034;-66
2023/04/26 07:16:07;;;;;;;2.85;1.52;;;10.60;99.90;;;;;;5126892;28;20068;-68
2023/04/26 07:18:44;;;;;;;2.25;1.80;;;10.50;99.90;;;;;;5140269;28;20303;-68
2023/04/26 07:21:15;;;;;;;1.40;1.30;;;10.50;99.90;;;;;;5152849;28;20064;-67
2023/04/26 07:23:47;;;;;;;2.08;1.48;;;10.60;99.90;;;;;;5130836;28;20042;-69
2023/04/26 07:26:22;;;;;;;2.17;1.83;;;10.90;99.90;;;;;;5145190;28;20037;-67
2023/04/26 07:28:54;;;;;;;3.47;2.20;;;10.90;99.90;;;;;;5115668;28;20246;-67
2023/04/26 07:31:25;;;;;;;2.17;1.70;;;10.60;99.90;;;;;;5158854;28;20045;-68
2023/04/26 07:34:05;;;;;;;2.65;2.17;;;10.50;99.90;;;;;;5151003;28;20052;-67
2023/04/26 07:36:41;;;;;;;2.15;1.92;;;10.70;99.90;;;;;;5115545;28;20046;-69
2023/04/26 07:39:14;;;;;;;2.85;1.48;;;10.80;99.90;;;;;;5115027;28;20034;-67
2023/04/26 07:41:47;;;;;;;2.20;1.40;;;10.50;99.90;;;;;;5159763;28;20091;-67
2023/04/26 07:44:18;;;;;;;2.70;1.88;;;10.20;99.90;;;;;;5122750;28;20056;-67
2023/04/26 07:46:56;;;;;;;1.35;1.25;;;10.30;99.90;;;;;;5135387;28;20049;-66
2023/04/26 07:49:29;;;;;;;1.67;1.23;;;10.50;99.90;;;;;;5143575;28;20046;-68
2023/04/26 07:52:02;;;;;;;1.52;1.42;;;10.70;99.90;;;;;;5153081;28;20144;-68
2023/04/26 07:54:38;;;;;;;1.58;1.40;;;10.80;99.90;;;;;;5133103;28;20044;-67
2023/04/26 07:57:18;;;;;;;1.20;1.10;;;10.90;99.90;;;;;;5119797;28;20604;-67
2023/04/26 07:59:56;;;;;;;2.08;1.73;;;11.10;99.90;;;;;;5143142;28;20251;-69
2023/04/26 08:02:28;;;;;;;1.77;1.30;;;10.80;99.90;;;;;;5135480;28;20310;-65
2023/04/26 08:05:10;;;;;;;1.63;1.38;;;10.70;99.90;;;;;;5130752;28;20559;-68
2023/04/26 08:07:45;;;;;;;2.60;1.33;;;10.80;99.90;;;;;;5095848;28;20385;-68
2023/04/26 08:10:26;;;;;;;2.05;1.85;;;11.30;99.90;;;;;;5151922;28;20045;-66
2023/04/26 08:13:03;;;;;;;1.58;1.40;;;11.90;99.90;;;;;;5166520;28;20053;-69
2023/04/26 08:15:37;;;;;;;1.88;1.65;;;11.60;99.90;;;;;;5163448;28;20263;-70
2023/04/26 08:18:14;;;;;;;3.17;1.97;;;11.30;99.90;;;;;;5142538;28;20279;-65
2023/04/26 08:20:46;;;;;;;2.00;1.77;;;11.50;99.90;;;;;;5134641;28;20042;-68
2023/04/26 08:23:21;;;;;;;1.30;1.20;;;11.60;99.90;;;;;;5138572;28;20057;-67
2023/04/26 08:25:53;;;;;;;1.85;1.45;;;11.00;99.90;;;;;;5151930;28;20392;-67
2023/04/26 08:28:27;;;;;;;3.20;1.65;;;10.70;99.90;;;;;;5121331;28;20050;-64
2023/04/26 08:31:03;;;;;;;1.70;1.60;;;10.50;99.90;;;;;;5151295;28;20394;-65
2023/04/26 08:33:35;;;;;;;3.05;1.67;;;10.70;99.90;;;;;;5095477;28;20054;-70
2023/04/26 08:36:09;;;;;;;1.70;1.60;;;11.10;99.90;;;;;;5131899;28;20428;-65
2023/04/26 08:38:46;;;;;;;3.03;1.40;;;11.90;99.90;;;;;;5107406;28;20689;-68
2023/04/26 08:41:25;;;;;;;2.58;1.35;;;12.00;99.90;;;;;;5115865;28;20042;-66
2023/04/26 08:43:57;;;;;;;1.83;1.35;;;11.80;99.90;;;;;;5142651;28;20342;-68
2023/04/26 08:46:44;;;;;;;1.40;1.30;;;12.20;99.90;;;;;;5141224;28;20038;-68
2023/04/26 08:49:28;;;;;;;2.83;1.70;;;12.20;99.90;;;;;;5141184;28;20048;-66
2023/04/26 08:52:03;;;;;;;2.72;1.58;;;11.60;99.90;;;;;;5129339;28;20046;-69
2023/04/26 08:54:37;;;;;;;2.25;1.70;;;11.70;99.90;;;;;;5137210;28;20334;-69
2023/04/26 08:57:11;;;;;;;1.88;1.67;;;11.70;99.90;;;;;;5161509;28;20030;-69
2023/04/26 08:59:48;;;;;;;1.63;1.40;;;11.40;99.90;;;;;;5082824;28;20041;-65
2023/04/26 09:02:25;;;;;;;2.60;1.63;;;11.00;99.90;;;;;;5134182;28;20061;-68
2023/04/26 09:05:03;;;;;;;1.65;1.20;;;11.10;99.90;;;;;;5124989;28;20060;-65
2023/04/26 09:07:39;;;;;;;3.17;1.40;;;11.20;99.90;;;;;;5150458;28;20057;-64
2023/04/26 09:10:15;;;;;;;1.85;1.75;;;11.20;99.90;;;;;;5141435;28;20041;-70
2023/04/26 09:12:56;;;;;;;1.67;1.23;;;10.70;99.90;;;;;;5154772;28;20037;-68
2023/04/26 09:15:31;;;;;;;1.60;1.50;;;10.70;99.90;;;;;;5103798;28;20254;-69
2023/04/26 09:18:30;;;;;;;1.92;1.67;;;10.90;99.90;;;;;;5129155;28;20318;-69
2023/04/26 09:21:08;;;;;;;1.20;1.10;;;11.30;99.90;;;;;;5110535;28;20254;-65
2023/04/26 09:24:05;;;;;;;1.15;1.10;;;11.70;99.90;;;;;;5146823;28;20033;-69
2023/04/26 09:26:37;;;;;;;1.73;1.63;;;11.80;99.90;;;;;;5117861;28;20327;-68
2023/04/26 09:29:17;;;;;;;3.92;1.60;;;11.80;99.90;;;;;;5116756;28;20053;-67
2023/04/26 09:31:51;;;;;;;2.78;1.48;;;11.70;99.90;;;;;;5110552;28;20057;-65
2023/04/26 09:34:29;;;;;;;1.85;1.60;;;11.90;99.90;;;;;;5153658;28;20041;-66
2023/04/26 09:37:06;;;;;;;3.13;1.33;;;12.20;99.90;;;;;;5125756;28;20321;-66
2023/04/26 09:39:43;;;;;;;1.85;1.25;;;11.30;99.90;;;;;;5150498;28;20046;-69
2023/04/26 09:42:21;;;;;;;2.63;2.42;;;11.40;99.90;;;;;;5118875;28;20038;-69
2023/04/26 09:44:59;;;;;;;2.78;1.63;;;11.00;99.90;;;;;;5131415;28;20230;-67
2023/04/26 09:47:33;;;;;;;1.38;1.20;;;11.20;99.90;;;;;;5116887;28;20045;-69
2023/04/26 09:50:09;;;;;;;2.92;1.45;;;11.00;99.90;;;;;;5172555;28;20154;-67
2023/04/26 09:52:49;;;;;;;5.10;1.88;;;11.20;99.90;;;;;;5116539;28;20043;-71
2023/04/26 09:55:28;;;;;;;3.40;1.77;;;11.10;99.90;;;;;;5116011;28;20260;-67
2023/04/26 09:58:10;;;;;;;1.40;1.30;;;10.90;99.90;;;;;;5126578;28;20049;-67
2023/04/26 10:00:48;;;;;;;1.30;1.20;;;10.70;99.90;;;;;;5118857;28;20195;-69
2023/04/26 10:03:27;;;;;;;2.85;1.25;;;10.80;99.90;;;;;;5152019;28;20219;-68
2023/04/26 10:06:02;;;;;;;1.25;1.15;;;11.10;99.90;;;;;;5147539;28;20075;-68
2023/04/26 10:08:38;;;;;;;1.45;1.35;;;11.40;99.90;;;;;;5157022;28;20041;-67
2023/04/26 10:11:15;;;;;;;1.40;1.30;;;11.40;99.90;;;;;;5124879;28;20267;-68
2023/04/26 10:13:50;;;;;;;1.67;1.55;;;11.50;99.90;;;;;;5152075;28;20037;-69
2023/04/26 10:16:23;;;;;;;1.08;1.08;;;11.80;99.90;;;;;;5165377;28;20029;-69
2023/04/26 10:18:55;;;;;;;1.42;1.33;;;11.80;99.90;;;;;;5122436;28;20042;-67
2023/04/26 10:21:35;;;;;;;1.52;1.42;;;11.90;99.90;;;;;;5139882;28;20060;-68
2023/04/26 10:24:12;;;;;;;1.63;1.20;;;11.20;99.90;;;;;;5140933;28;20249;-69
2023/04/26 10:26:52;;;;;;;1.27;1.20;;;11.00;99.90;;;;;;5157276;28;20397;-69
2023/04/26 10:29:55;;;;;;;3.05;1.40;;;11.00;99.90;;;;;;5130488;28;20121;-70
2023/04/26 10:32:30;;;;;;;1.40;1.13;;;12.00;99.90;;;;;;5124065;28;20046;-68
2023/04/26 10:35:12;;;;;;;2.15;1.60;;;12.20;99.90;;;;;;5124399;28;20442;-71
2023/04/26 10:38:02;;;;;;;1.35;1.25;;;13.40;99.90;;;;;;5151517;28;20266;-68
2023/04/26 10:40:38;;;;;;;1.55;1.40;;;14.60;99.90;;;;;;5138887;28;20569;-67
2023/04/26 10:43:15;;;;;;;1.80;1.70;;;13.80;99.90;;;;;;5165077;28;20038;-65
2023/04/26 10:45:55;;;;;;;1.85;1.40;;;12.30;99.90;;;;;;5144818;28;20393;-68
2023/04/26 10:48:27;;;;;;;1.40;1.30;;;11.90;99.90;;;;;;5120750;28;20053;-66
2023/04/26 10:51:00;;;;;;;1.60;1.17;;;12.00;99.90;;;;;;5169599;28;20052;-66
2023/04/26 10:53:57;;;;;;;1.42;1.25;;;12.00;99.90;;;;;;5135004;28;20223;-66
2023/04/26 10:56:31;;;;;;;2.35;1.40;;;11.90;99.90;;;;;;5123352;28;20049;-70
2023/04/26 10:59:13;;;;;;;2.15;1.80;;;12.20;99.90;;;;;;5130438;28;20041;-67
2023/04/26 11:01:45;;;;;;;1.92;1.40;;;13.40;99.90;;;;;;5117245;28;20042;-67
2023/04/26 11:04:17;;;;;;;1.67;1.58;;;14.70;99.90;;;;;;5159123;28;20568;-69
2023/04/26 11:06:58;;;;;;;2.13;1.92;;;15.90;99.90;;;;;;5115681;28;20053;-68
2023/04/26 11:09:52;;;;;;;1.10;1.10;;;15.70;99.90;;;;;;5136002;28;20489;-70
2023/04/26 11:12:27;;;;;;;1.55;1.45;;;15.70;99.90;;;;;;5128968;28;20358;-68
2023/04/26 11:15:02;;;;;;;1.50;1.38;;;14.60;99.90;;;;;;5171585;28;20491;-67
2023/04/26 11:17:44;;;;;;;2.22;1.40;;;13.80;99.90;;;;;;5157098;28;20033;-63
2023/04/26 11:20:18;;;;;;;1.48;1.38;;;13.10;99.90;;;;;;5153915;28;20306;-70
2023/04/26 11:22:54;;;;;;;1.98;1.27;;;12.40;99.90;;;;;;5145678;28;20495;-68
2023/04/26 11:25:28;;;;;;;2.65;2.38;;;13.70;99.90;;;;;;5155367;28;20030;-66
2023/04/26 11:28:05;;;;;;;1.30;1.20;;;15.00;99.90;;;;;;5138676;28;20044;-68
2023/04/26 11:30:48;;;;;;;1.40;1.30;;;14.90;99.90;;;;;;5139120;28;20341;-67
2023/04/26 11:33:21;;;;;;;1.42;1.33;;;13.80;99.90;;;;;;5135397;28;20057;-69
2023/04/26 11:35:58;;;;;;;1.88;1.63;;;13.70;99.90;;;;;;5122060;28;20312;-67
2023/04/26 11:38:35;;;;;;;1.70;1.60;;;14.00;99.90;;;;;;5139282;28;20049;-70
2023/04/26 11:41:11;;;;;;;1.40;1.30;;;14.10;99.90;;;;;;5114490;28;20128;-67
2023/04/26 11:43:42;;;;;;;2.92;1.27;;;13.50;99.90;;;;;;5155824;28;20029;-68
2023/04/26 11:46:14;;;;;;;4.75;1.70;;;13.20;99.90;;;;;;5176623;28;20525;-69
2023/04/26 11:48:52;;;;;;;1.75;1.35;;;12.70;99.90;;;;;;5153607;28;20322;-68
2023/04/26 11:51:31;;;;;;;1.48;1.38;;;12.70;99.90;;;;;;5157719;28;20041;-67
2023/04/26 11:54:02;;;;;;;1.20;1.10;;;12.20;99.90;;;;;;5134662;28;20026;-70
2023/04/26 11:56:39;;;;;;;1.42;1.33;;;12.40;99.90;;;;;;5134995;28;20037;-68
2023/04/26 11:59:29;;;;;;;1.00;1.00;;;13.00;99.90;;;;;;5115368;28;20048;-70
2023/04/26 12:02:13;;;;;;;1.85;1.75;;;14.50;99.90;;;;;;5105989;28;20056;-69
2023/04/26 12:04:50;;;;;;;5.40;1.63;;;16.40;99.90;;;;;;5155904;28;20073;-69
2023/04/26 12:07:35;;;;;;;2.35;1.60;;;16.20;99.90;;;;;;5138384;28;20046;-68
2023/04/26 12:10:34;;;;;;;1.77;1.38;;;15.50;99.90;;;;;;5133791;28;20538;-65
2023/04/26 12:13:12;;;;;;;1.48;1.38;;;14.50;99.90;;;;;;5137373;28;20064;-69
2023/04/26 12:15:49;;;;;;;1.55;1.30;;;13.10;99.90;;;;;;5133935;28;20050;-72
2023/04/26 12:18:22;;;;;;;1.60;1.50;;;12.60;99.90;;;;;;5155299;28;20358;-70
2023/04/26 12:20:58;;;;;;;1.30;1.20;;;12.40;99.90;;;;;;5155955;28;20037;-66
2023/04/26 12:23:46;;;;;;;1.50;1.40;;;12.50;99.90;;;;;;5131125;28;20042;-65
2023/04/26 12:26:20;;;;;;;1.58;1.48;;;12.90;99.90;;;;;;5146399;28;20045;-68
2023/04/26 12:28:56;;;;;;;1.83;1.42;;;13.10;99.90;;;;;;5122418;28;20134;-69
2023/04/26 12:31:30;;;;;;;2.13;1.60;;;13.50;99.90;;;;;;5151323;28;20589;-66
2023/04/26 12:34:02;;;;;;;1.50;1.17;;;13.10;99.90;;;;;;5111755;28;20077;-69
2023/04/26 12:36:43;;;;;;;2.85;1.15;;;13.10;99.90;;;;;;5151908;28;20373;-69
2023/04/26 12:39:16;;;;;;;2.33;1.50;;;12.90;99.90;;;;;;5152674;28;20051;-69
2023/04/26 12:41:48;;;;;;;2.90;1.42;;;12.10;99.90;;;;;;5148931;28;20034;-70
2023/04/26 12:44:20;;;;;;;0.90;0.90;;;12.10;99.90;;;;;;5150583;28;20052;-70
2023/04/26 12:46:54;;;;;;;1.73;1.33;;;12.50;99.90;;;;;;5143760;28;20042;-70
2023/04/26 12:49:28;;;;;;;1.20;1.10;;;12.50;99.90;;;;;;5121204;28;20048;-68
2023/04/26 12:52:02;;;;;;;2.00;1.63;;;12.70;99.90;;;;;;5127655;28;20051;-69
2023/04/26 12:54:38;;;;;;;1.55;1.45;;;14.40;99.90;;;;;;5178348;28;20041;-69
2023/04/26 12:57:09;;;;;;;3.90;1.95;;;16.40;99.90;;;;;;5124785;28;20050;-66
2023/04/26 12:59:44;;;;;;;1.77;1.63;;;17.60;99.90;;;;;;5152002;28;20034;-69
2023/04/26 13:02:18;;;;;;;1.40;1.30;;;17.40;99.90;;;;;;5114583;28;20237;-66
2023/04/26 13:04:52;;;;;;;1.60;1.50;;;15.80;99.90;;;;;;5133793;28;20050;-67
2023/04/26 13:07:23;;;;;;;2.45;1.92;;;14.40;99.90;;;;;;5146697;28;20044;-68
2023/04/26 13:09:57;;;;;;;2.05;1.60;;;13.90;99.90;;;;;;5176708;28;20045;-67
2023/04/26 13:12:32;;;;;;;2.58;1.63;;;13.50;99.90;;;;;;5161114;28;20037;-65
2023/04/26 13:15:12;;;;;;;1.45;1.35;;;13.40;99.90;;;;;;5132011;28;20059;-71
2023/04/26 13:17:44;;;;;;;2.35;1.80;;;12.90;99.90;;;;;;5116759;28;20042;-70
2023/04/26 13:20:17;;;;;;;1.63;1.52;;;12.60;99.90;;;;;;5152944;28;20030;-65
2023/04/26 13:22:50;;;;;;;1.40;1.30;;;12.40;99.90;;;;;;5176040;28;20033;-66
2023/04/26 13:25:26;;;;;;;2.35;1.50;;;12.40;99.90;;;;;;5179768;28;20215;-68
2023/04/26 13:27:58;;;;;;;1.40;1.30;;;12.80;99.90;;;;;;5142314;28;20056;-68
2023/04/26 13:30:34;;;;;;;1.73;1.52;;;13.40;99.90;;;;;;5143268;28;20045;-69
2023/04/26 13:33:12;;;;;;;1.48;1.38;;;13.70;99.90;;;;;;5158036;28;20041;-68
2023/04/26 13:35:45;;;;;;;1.50;1.40;;;13.90;99.90;;;;;;5162565;28;20046;-67
2023/04/26 13:38:18;;;;;;;1.98;1.50;;;14.00;99.90;;;;;;5169389;28;20061;-70
2023/04/26 13:40:52;;;;;;;1.33;1.23;;;14.10;99.90;;;;;;5144583;28;20053;-67